Terminal Aerodrome Forecast
Issued by NWS

Home | Current Version | Previous Version | Text Only | Print | Product List | Glossary On
Versions: 1 2 3 4 5 6 7 8 9 10 11 12 13 14 15 16 17 18 19 20 21 22 23 24 25 26
000
FTUS41 KBUF 191737
TAFJHW
TAF
KJHW 191737Z 1918/2018 25005KT P6SM -DZ OVC005
     FM192100 VRB03KT P6SM OVC250
     FM200400 16004KT P6SM BKN250
     FM200700 13004KT P6SM BKN250
     FM201000 14005KT P6SM BKN150
     FM201400 15009KT 6SM -RA OVC060
      AMD LTD TO CLD VIS AND WIND=

USA.gov is the U.S. government's official web portal to all federal, state and local government web resources and services.